PWSweather.com
Personal Weather Stations
Station Observations
OAK1E
Piedmont Ave District, Oakland, CA 94611

Piedmont Ave DistrictOakland, CA 94611

Lat: 37.832205, Lon: -122.250229

Elevation: 176

Station Type: Davis Vantage Pro 2

http://www.mayacamaswx.com/Oakland1E/Oakland1E.htm

Latest ConditionsUpdated 11:40:00 AM PST Tuesday, Dec 6, 2016
Currently Today's Max Today's Min Today's Average
Temperature 50.9°F10.5°C 50.9°F10.5°C 42.6°F5.9°C 45.0°F7.2°C
Dew Point 40.8°F4.9°C 44.2°F6.8°C 34.6°F1.4°C 38.1°F3.4°C
Winds 0.8 mph NNE1.3 kmh NNE 2.8 mph NW4.5 kmh NW - 0.3 mph 0.5 kmh
Wind Gusts 1.0 mph1.6 kmh 5.0 mph8.0 kmh - -
Humidity 68% 91% 68% 77%
Pressure 30.10 in1019.3 mb 30.12 in1020.0 mb 30.05 in1017.6 mb -
Hour Temp Dew Point Humidity Winds Wind Gusts Pressure Precip Precip Rate Daily Precip Total
11:40 AM 50.9°F10.5°C 40.8°F4.9°C 68% 0.8 mph NNE1.3 kmh NNE 1.0 mph1.6 kmh 30.10 in1019.3 mb - 0.00 in0.0 mm 0.00 in0.0 mm
11:30 AM 50.6°F10.3°C 40.8°F4.9°C 69% 0.2 mph E0.3 kmh E 2.0 mph3.2 kmh 30.10 in1019.3 mb - 0.00 in0.0 mm 0.00 in0.0 mm
11:20 AM 50.3°F10.2°C 40.9°F4.9°C 70% Calm Calm 2.0 mph3.2 kmh 30.11 in1019.6 mb - 0.00 in0.0 mm 0.00 in0.0 mm
11:10 AM 50.0°F10.0°C 40.6°F4.8°C 70% 0.4 mph SSE0.6 kmh SSE 1.0 mph1.6 kmh 30.11 in1019.6 mb - 0.00 in0.0 mm 0.00 in0.0 mm
11:00 AM 49.5°F9.7°C 40.1°F4.5°C 70% 0.2 mph NW0.3 kmh NW 2.0 mph3.2 kmh 30.11 in1019.6 mb - 0.00 in0.0 mm 0.00 in0.0 mm
10:50 AM 49.0°F9.4°C 40.0°F4.4°C 71% 0.1 mph NNE0.2 kmh NNE 1.0 mph1.6 kmh 30.12 in1020.0 mb - 0.00 in0.0 mm 0.00 in0.0 mm
10:40 AM 48.6°F9.2°C 40.0°F4.4°C 72% 0.4 mph N0.6 kmh N 1.0 mph1.6 kmh 30.12 in1020.0 mb - 0.00 in0.0 mm 0.00 in0.0 mm
10:30 AM 48.4°F9.1°C 39.8°F4.3°C 72% Calm Calm 1.0 mph1.6 kmh 30.12 in1020.0 mb - 0.00 in0.0 mm 0.00 in0.0 mm
10:20 AM 48.1°F8.9°C 39.5°F4.2°C 72% 0.4 mph NW0.6 kmh NW 2.0 mph3.2 kmh 30.12 in1020.0 mb - 0.00 in0.0 mm 0.00 in0.0 mm
10:10 AM 47.8°F8.8°C 39.2°F4.0°C 72% 0.5 mph NW0.8 kmh NW -- 30.12 in1020.0 mb - 0.00 in0.0 mm 0.00 in0.0 mm
10:00 AM 47.4°F8.6°C 38.8°F3.8°C 72% 0.1 mph NW0.2 kmh NW 1.0 mph1.6 kmh 30.12 in1020.0 mb - 0.00 in0.0 mm 0.00 in0.0 mm
09:50 AM 47.0°F8.3°C 38.4°F3.6°C 72% Calm Calm -- 30.12 in1020.0 mb - 0.00 in0.0 mm 0.00 in0.0 mm
09:40 AM 46.7°F8.2°C 38.2°F3.4°C 72% Calm Calm -- 30.12 in1020.0 mb - 0.00 in0.0 mm 0.00 in0.0 mm
09:30 AM 46.3°F7.9°C 37.8°F3.2°C 72% 0.6 mph NE1.0 kmh NE 1.0 mph1.6 kmh 30.12 in1020.0 mb - 0.00 in0.0 mm 0.00 in0.0 mm
09:20 AM 46.0°F7.8°C 37.8°F3.2°C 73% Calm Calm 1.0 mph1.6 kmh 30.12 in1020.0 mb - 0.00 in0.0 mm 0.00 in0.0 mm
09:10 AM 45.6°F7.6°C 37.4°F3.0°C 73% Calm Calm -- 30.11 in1019.6 mb - 0.00 in0.0 mm 0.00 in0.0 mm
09:00 AM 45.0°F7.2°C 37.2°F2.9°C 74% 0.2 mph N0.3 kmh N 1.0 mph1.6 kmh 30.11 in1019.6 mb - 0.00 in0.0 mm 0.00 in0.0 mm
08:50 AM 44.4°F6.9°C 36.9°F2.7°C 75% Calm Calm -- 30.11 in1019.6 mb - 0.00 in0.0 mm 0.00 in0.0 mm
08:40 AM 43.8°F6.6°C 36.4°F2.4°C 75% Calm Calm -- 30.10 in1019.3 mb - 0.00 in0.0 mm 0.00 in0.0 mm
08:30 AM 43.2°F6.2°C 36.2°F2.3°C 76% Calm Calm -- 30.10 in1019.3 mb - 0.00 in0.0 mm 0.00 in0.0 mm
08:20 AM 43.1°F6.2°C 36.0°F2.2°C 76% Calm Calm -- 30.10 in1019.3 mb - 0.00 in0.0 mm 0.00 in0.0 mm
08:10 AM 43.1°F6.2°C 35.7°F2.1°C 75% Calm Calm -- 30.10 in1019.3 mb - 0.00 in0.0 mm 0.00 in0.0 mm
08:00 AM 43.2°F6.2°C 35.8°F2.1°C 75% 0.3 mph N0.5 kmh N 1.0 mph1.6 kmh 30.09 in1019.0 mb - 0.00 in0.0 mm 0.00 in0.0 mm
07:50 AM 43.2°F6.2°C 35.5°F1.9°C 74% 0.3 mph N0.5 kmh N 2.0 mph3.2 kmh 30.09 in1019.0 mb - 0.00 in0.0 mm 0.00 in0.0 mm
07:40 AM 43.1°F6.2°C 35.4°F1.9°C 74% 1.2 mph N1.9 kmh N 2.0 mph3.2 kmh 30.09 in1019.0 mb - 0.00 in0.0 mm 0.00 in0.0 mm
07:30 AM 43.2°F6.2°C 35.4°F1.9°C 74% 0.5 mph NNW0.8 kmh NNW 2.0 mph3.2 kmh 30.09 in1019.0 mb - 0.00 in0.0 mm 0.00 in0.0 mm
07:20 AM 43.4°F6.3°C 35.3°F1.8°C 73% 1.5 mph N2.4 kmh N 4.0 mph6.4 kmh 30.08 in1018.6 mb - 0.00 in0.0 mm 0.00 in0.0 mm
07:10 AM 43.6°F6.4°C 35.2°F1.8°C 72% 1.7 mph N2.7 kmh N 4.0 mph6.4 kmh 30.09 in1019.0 mb - 0.00 in0.0 mm 0.00 in0.0 mm
07:00 AM 43.6°F6.4°C 34.8°F1.6°C 71% 0.9 mph NNW1.4 kmh NNW 2.0 mph3.2 kmh 30.08 in1018.6 mb - 0.00 in0.0 mm 0.00 in0.0 mm
06:50 AM 43.6°F6.4°C 35.2°F1.8°C 72% 1.1 mph NW1.8 kmh NW 3.0 mph4.8 kmh 30.08 in1018.6 mb - 0.00 in0.0 mm 0.00 in0.0 mm
06:40 AM 43.4°F6.3°C 34.6°F1.4°C 71% 1.4 mph ENE2.3 kmh ENE 4.0 mph6.4 kmh 30.08 in1018.6 mb - 0.00 in0.0 mm 0.00 in0.0 mm
06:30 AM 43.4°F6.3°C 35.0°F1.7°C 72% 0.3 mph NW0.5 kmh NW 2.0 mph3.2 kmh 30.08 in1018.6 mb - 0.00 in0.0 mm 0.00 in0.0 mm
06:20 AM 43.3°F6.3°C 34.9°F1.6°C 72% 0.6 mph NW1.0 kmh NW 3.0 mph4.8 kmh 30.08 in1018.6 mb - 0.00 in0.0 mm 0.00 in0.0 mm
06:10 AM 43.0°F6.1°C 34.6°F1.4°C 72% 0.2 mph E0.3 kmh E 1.0 mph1.6 kmh 30.08 in1018.6 mb - 0.00 in0.0 mm 0.00 in0.0 mm
06:00 AM 42.8°F6.0°C 35.1°F1.7°C 74% 0.5 mph N0.8 kmh N 3.0 mph4.8 kmh 30.07 in1018.3 mb - 0.00 in0.0 mm 0.00 in0.0 mm
05:50 AM 43.1°F6.2°C 35.3°F1.8°C 74% Calm Calm -- 30.07 in1018.3 mb - 0.00 in0.0 mm 0.00 in0.0 mm
05:40 AM 43.3°F6.3°C 35.9°F2.2°C 75% Calm Calm -- 30.07 in1018.3 mb - 0.00 in0.0 mm 0.00 in0.0 mm
05:30 AM 43.9°F6.6°C 36.1°F2.3°C 74% Calm Calm -- 30.07 in1018.3 mb - 0.00 in0.0 mm 0.00 in0.0 mm
05:20 AM 44.2°F6.8°C 36.4°F2.4°C 74% 0.2 mph NNW0.3 kmh NNW -- 30.07 in1018.3 mb - 0.00 in0.0 mm 0.00 in0.0 mm
05:10 AM 44.4°F6.9°C 36.3°F2.4°C 73% 0.5 mph NE0.8 kmh NE 2.0 mph3.2 kmh 30.07 in1018.3 mb - 0.00 in0.0 mm 0.00 in0.0 mm
05:00 AM 44.5°F6.9°C 36.0°F2.2°C 72% 1.4 mph NE2.3 kmh NE 4.0 mph6.4 kmh 30.07 in1018.3 mb - 0.00 in0.0 mm 0.00 in0.0 mm
04:50 AM 44.3°F6.8°C 36.2°F2.3°C 73% 2.8 mph NW4.5 kmh NW 5.0 mph8.0 kmh 30.07 in1018.3 mb - 0.00 in0.0 mm 0.00 in0.0 mm
04:40 AM 44.1°F6.7°C 36.7°F2.6°C 75% 0.6 mph NE1.0 kmh NE 1.0 mph1.6 kmh 30.07 in1018.3 mb - 0.00 in0.0 mm 0.00 in0.0 mm
04:30 AM 44.0°F6.7°C 36.9°F2.7°C 76% 0.8 mph N1.3 kmh N 1.0 mph1.6 kmh 30.06 in1017.9 mb - 0.00 in0.0 mm 0.00 in0.0 mm
04:20 AM 44.0°F6.7°C 36.6°F2.6°C 75% 0.3 mph N0.5 kmh N 1.0 mph1.6 kmh 30.06 in1017.9 mb - 0.00 in0.0 mm 0.00 in0.0 mm
04:10 AM 44.0°F6.7°C 36.6°F2.6°C 75% 0.3 mph N0.5 kmh N 1.0 mph1.6 kmh 30.06 in1017.9 mb - 0.00 in0.0 mm 0.00 in0.0 mm
04:00 AM 44.0°F6.7°C 36.6°F2.6°C 75% 0.4 mph NNW0.6 kmh NNW 2.0 mph3.2 kmh 30.06 in1017.9 mb - 0.00 in0.0 mm 0.00 in0.0 mm
03:50 AM 43.8°F6.6°C 37.1°F2.8°C 77% 1.2 mph NW1.9 kmh NW 3.0 mph4.8 kmh 30.06 in1017.9 mb - 0.00 in0.0 mm 0.00 in0.0 mm
03:40 AM 43.5°F6.4°C 37.4°F3.0°C 79% 0.6 mph NW1.0 kmh NW 1.0 mph1.6 kmh 30.05 in1017.6 mb - 0.00 in0.0 mm 0.00 in0.0 mm
03:30 AM 43.4°F6.3°C 37.3°F2.9°C 79% Calm Calm 1.0 mph1.6 kmh 30.05 in1017.6 mb - 0.00 in0.0 mm 0.00 in0.0 mm
03:20 AM 43.1°F6.2°C 37.3°F2.9°C 80% 0.7 mph NW1.1 kmh NW 3.0 mph4.8 kmh 30.06 in1017.9 mb - 0.00 in0.0 mm 0.00 in0.0 mm
03:10 AM 43.1°F6.2°C 37.6°F3.1°C 81% Calm Calm -- 30.06 in1017.9 mb - 0.00 in0.0 mm 0.00 in0.0 mm
03:00 AM 42.9°F6.1°C 37.8°F3.2°C 82% Calm Calm -- 30.06 in1017.9 mb - 0.00 in0.0 mm 0.00 in0.0 mm
02:50 AM 42.6°F5.9°C 38.1°F3.4°C 84% Calm Calm 1.0 mph1.6 kmh 30.06 in1017.9 mb - 0.00 in0.0 mm 0.00 in0.0 mm
02:40 AM 42.9°F6.1°C 38.4°F3.6°C 84% Calm Calm -- 30.05 in1017.6 mb - 0.00 in0.0 mm 0.00 in0.0 mm
02:30 AM 43.4°F6.3°C 39.2°F4.0°C 85% Calm Calm -- 30.05 in1017.6 mb - 0.00 in0.0 mm 0.00 in0.0 mm
02:20 AM 43.9°F6.6°C 39.7°F4.3°C 85% Calm Calm -- 30.06 in1017.9 mb - 0.00 in0.0 mm 0.00 in0.0 mm
02:10 AM 44.3°F6.8°C 39.7°F4.3°C 84% Calm Calm -- 30.06 in1017.9 mb - 0.00 in0.0 mm 0.00 in0.0 mm
02:00 AM 44.5°F6.9°C 39.7°F4.3°C 83% Calm Calm -- 30.06 in1017.9 mb - 0.00 in0.0 mm 0.00 in0.0 mm
01:50 AM 45.0°F7.2°C 39.8°F4.3°C 82% Calm Calm -- 30.05 in1017.6 mb - 0.00 in0.0 mm 0.00 in0.0 mm
01:40 AM 45.3°F7.4°C 40.1°F4.5°C 82% Calm Calm -- 30.05 in1017.6 mb - 0.00 in0.0 mm 0.00 in0.0 mm
01:30 AM 45.4°F7.4°C 40.2°F4.6°C 82% Calm Calm -- 30.05 in1017.6 mb - 0.00 in0.0 mm 0.00 in0.0 mm
01:20 AM 45.3°F7.4°C 41.1°F5.1°C 85% 0.3 mph NW0.5 kmh NW 1.0 mph1.6 kmh 30.05 in1017.6 mb - 0.00 in0.0 mm 0.00 in0.0 mm
01:10 AM 45.6°F7.6°C 42.3°F5.7°C 88% Calm Calm -- 30.05 in1017.6 mb - 0.00 in0.0 mm 0.00 in0.0 mm
01:00 AM 45.8°F7.7°C 42.5°F5.8°C 88% Calm Calm -- 30.05 in1017.6 mb - 0.00 in0.0 mm 0.00 in0.0 mm
12:50 AM 45.7°F7.6°C 42.3°F5.7°C 88% 0.1 mph N0.2 kmh N 1.0 mph1.6 kmh 30.06 in1017.9 mb - 0.00 in0.0 mm 0.00 in0.0 mm
12:40 AM 45.6°F7.6°C 42.6°F5.9°C 89% Calm Calm -- 30.05 in1017.6 mb - 0.00 in0.0 mm 0.00 in0.0 mm
12:30 AM 45.8°F7.7°C 43.3°F6.3°C 91% Calm Calm -- 30.06 in1017.9 mb - 0.00 in0.0 mm 0.00 in0.0 mm
12:20 AM 46.1°F7.8°C 43.6°F6.4°C 91% Calm Calm -- 30.05 in1017.6 mb - 0.00 in0.0 mm 0.00 in0.0 mm
12:10 AM 46.4°F8.0°C 43.9°F6.6°C 91% Calm Calm -- 30.05 in1017.6 mb - 0.00 in0.0 mm 0.00 in0.0 mm
12:00 AM 46.6°F8.1°C 44.2°F6.8°C 91% Calm Calm -- 30.05 in1017.6 mb - 0.00 in0.0 mm 0.00 in0.0 mm